Flight Track Log - Related Links

Times and Time Zones

All times are in EST time to prevent confusion due to time zone crossing. See the N441A flight status page for this flight to view local times or setup timezone preferences in your user account.

Time Position Orientation Groundspeed Altitude Reporting Facility
EST Latitude Longitude Course Direction KTS MPH feet Rate Location/Type
Thu 09:35:29 AM 38.0283 -97.8589 172° South 102 117 4,100  Level Kansas City Center
Thu 09:36:30 AM 38.0033 -97.8147 126° Southeast 185 213 6,400 2,211 Climbing Kansas City Center
Thu 09:37:23 AM 37.9953 -97.7686 102° East 153 176 8,300 1,670 Climbing Kansas City Center
Thu 09:38:25 AM 38.0372 -97.7150 45° Northeast 220 253 9,600 1,756 Climbing Kansas City Center
Thu 09:39:26 AM 38.0897 -97.6628 38° Northeast 222 255 11,900 2,049 Climbing Kansas City Center
Thu 09:40:28 AM 38.1372 -97.6175 37° Northeast 214 246 13,800 1,839 Climbing Kansas City Center
Thu 09:41:30 AM 38.1872 -97.5658 39° Northeast 226 260 15,700 1,887 Climbing Kansas City Center
Thu 09:42:32 AM 38.2353 -97.5183 38° Northeast 209 241 17,700 1,645 Climbing Kansas City Center
Thu 09:43:34 AM 38.2806 -97.4658 42° Northeast 212 244 19,100 1,452 Climbing Kansas City Center
Thu 09:44:36 AM 38.3289 -97.4150 40° Northeast 216 249 20,700 1,403 Climbing Kansas City Center
Thu 09:45:38 AM 38.3764 -97.3656 39° Northeast 213 245 22,000 1,220 Climbing Kansas City Center
Thu 09:46:39 AM 38.4236 -97.3161 39° Northeast 227 261 23,200 1,171 Climbing Kansas City Center
Thu 09:47:41 AM 38.4767 -97.2597 40° Northeast 240 276 24,400 1,258 Climbing Kansas City Center
Thu 09:48:43 AM 38.5308 -97.2017 40° Northeast 244 281 25,800 1,258 Climbing Kansas City Center
Thu 09:49:45 AM 38.5847 -97.1436 40° Northeast 243 280 27,000 1,065 Climbing Kansas City Center
Thu 09:50:47 AM 38.6422 -97.0839 39° Northeast 253 291 28,000 919 Climbing Kansas City Center
Thu 09:51:49 AM 38.7000 -97.0214 40° Northeast 260 299 28,900 919 Climbing Kansas City Center
Thu 09:52:51 AM 38.7542 -96.9628 40° Northeast 262 302 29,900 919 Climbing Kansas City Center
Thu 09:53:53 AM 38.8128 -96.9000 40° Northeast 263 303 30,800 532 Climbing Kansas City Center
Thu 09:54:55 AM 38.8747 -96.8333 40° Northeast 277 319 31,000 97 Climbing Kansas City Center
Thu 09:55:57 AM 38.9356 -96.7672 40° Northeast 303 349 31,000  Level Kansas City Center
Thu 09:56:59 AM 39.0142 -96.6831 40° Northeast 325 374 31,000  Level Kansas City Center
Thu 09:58:01 AM 39.0822 -96.6103 40° Northeast 328 377 31,000  Level Kansas City Center
Thu 09:59:03 AM 39.1622 -96.5222 40° Northeast 335 386 31,000  Level Kansas City Center
Thu 10:00:05 AM 39.2319 -96.4444 41° Northeast 342 394 31,000  Level Kansas City Center
Thu 10:01:07 AM 39.3128 -96.3578 40° Northeast 339 390 31,000  Level Kansas City Center
Thu 10:02:09 AM 39.3814 -96.2792 42° Northeast 341 392 31,000  Level Kansas City Center
Thu 10:03:11 AM 39.4642 -96.1917 39° Northeast 341 392 31,000  Level Kansas City Center
Thu 10:04:13 AM 39.5356 -96.1119 41° Northeast 348 400 31,000  Level Kansas City Center
Thu 10:05:15 AM 39.6064 -96.0339 40° Northeast 349 402 31,000  Level Kansas City Center
Thu 10:06:17 AM 39.6886 -95.9433 40° Northeast 346 398 31,000  Level Kansas City Center
Thu 10:07:19 AM 39.7597 -95.8642 41° Northeast 349 402 31,000  Level Kansas City Center
Thu 10:08:22 AM 39.8431 -95.7686 41° Northeast 352 405 31,000 -48 Level Kansas City Center
Thu 10:09:24 AM 39.9136 -95.6919 40° Northeast 350 403 30,900 -48 Descending Kansas City Center
Thu 10:10:26 AM 39.9947 -95.5989 41° Northeast 348 400 30,900  Level Kansas City Center
Thu 10:11:28 AM 40.0653 -95.5189 41° Northeast 348 400 30,900 48 Level Kansas City Center
Thu 10:12:30 AM 40.1475 -95.4297 40° Northeast 345 397 31,000 63 Climbing Kansas City Center
Thu 10:13:03 AM 40.1750 -95.3944 44° Northeast 348 400 31,000  Level Minneapolis Center
Thu 10:14:05 AM 40.2478 -95.3122 41° Northeast 347 399 31,000  Level Minneapolis Center
Thu 10:15:06 AM 40.3344 -95.2122 41° Northeast 347 399 31,000  Level Minneapolis Center
Thu 10:16:08 AM 40.4086 -95.1292 40° Northeast 349 402 31,000  Level Minneapolis Center
Thu 10:17:10 AM 40.4806 -95.0469 41° Northeast 346 398 31,000  Level Minneapolis Center
Thu 10:18:12 AM 40.5536 -94.9647 41° Northeast 347 399 31,000  Level Minneapolis Center
Thu 10:19:13 AM 40.6242 -94.8822 42° Northeast 343 395 31,000  Level Minneapolis Center
Thu 10:20:15 AM 40.6956 -94.7997 41° Northeast 342 394 31,000  Level Minneapolis Center
Thu 10:21:17 AM 40.7811 -94.7003 41° Northeast 342 394 31,000  Level Minneapolis Center
Thu 10:22:19 AM 40.8531 -94.6169 41° Northeast 344 396 31,000  Level Minneapolis Center
Thu 10:23:21 AM 40.9211 -94.5367 42° Northeast 345 397 31,000  Level Minneapolis Center
Thu 10:24:22 AM 40.9919 -94.4522 42° Northeast 344 396 31,000  Level Minneapolis Center
Thu 10:25:24 AM 41.0647 -94.3686 41° Northeast 345 397 31,000  Level Minneapolis Center
Thu 10:26:26 AM 41.1347 -94.2853 42° Northeast 344 396 31,000  Level Minneapolis Center
Thu 10:27:28 AM 41.2217 -94.1836 41° Northeast 346 398 31,000  Level Minneapolis Center
Thu 10:28:30 AM 41.2939 -94.0989 41° Northeast 346 398 31,000  Level Minneapolis Center
Thu 10:29:32 AM 41.3642 -94.0119 43° Northeast 347 399 31,000  Level Minneapolis Center
Thu 10:30:33 AM 41.4364 -93.9294 41° Northeast 346 398 31,000  Level Minneapolis Center
Thu 10:31:35 AM 41.5081 -93.8433 42° Northeast 346 398 31,000  Level Minneapolis Center
Thu 10:32:37 AM 41.5781 -93.7572 43° Northeast 345 397 31,000  Level Minneapolis Center
Thu 10:33:39 AM 41.6636 -93.6572 41° Northeast 343 395 31,000  Level Minneapolis Center
Thu 10:34:41 AM 41.7347 -93.5675 43° Northeast 350 403 31,000  Level Minneapolis Center
Thu 10:35:43 AM 41.8067 -93.4822 41° Northeast 349 402 31,000  Level Minneapolis Center
Thu 10:36:45 AM 41.8775 -93.3967 42° Northeast 346 398 31,000  Level Minneapolis Center
Thu 10:37:47 AM 41.9469 -93.3119 42° Northeast 345 397 31,000  Level Minneapolis Center
Thu 10:38:49 AM 42.0319 -93.2097 42° Northeast 344 396 31,000  Level Minneapolis Center
Thu 10:39:51 AM 42.1008 -93.1189 44° Northeast 349 402 31,000  Level Minneapolis Center
Thu 10:45:11 AM 42.4630 -92.6720 44° Northeast 100 115 31,000  Level FlightAware ADS-B
Thu 10:46:06 AM 42.5330 -92.5880 41° Northeast 350 403 31,000  Level FlightAware ADS-B
Thu 10:46:41 AM 42.5740 -92.5340 44° Northeast 352 405 31,000  Level FlightAware ADS-B
Thu 10:47:17 AM 42.6150 -92.4830 42° Northeast 350 403 31,000  Level FlightAware ADS-B
Thu 10:47:46 AM 42.6500 -92.4400 42° Northeast 349 402 31,000  Level FlightAware ADS-B
Thu 10:48:36 AM 42.7080 -92.3640 44° Northeast 347 399 31,000  Level FlightAware ADS-B
Thu 10:49:17 AM 42.7560 -92.3050 42° Northeast 349 402 31,000  Level FlightAware ADS-B
Thu 10:49:46 AM 42.7920 -92.2590 43° Northeast 352 405 31,000  Level FlightAware ADS-B
Thu 10:50:36 AM 42.8510 -92.1840 43° Northeast 352 405 31,000  Level FlightAware ADS-B
Thu 10:51:11 AM 42.8900 -92.1360 42° Northeast 349 402 31,000  Level FlightAware ADS-B
Thu 10:51:47 AM 42.9340 -92.0790 43° Northeast 352 405 31,000  Level FlightAware ADS-B
Thu 10:52:47 AM 43.0040 -91.9900 43° Northeast 353 406 31,000  Level FlightAware ADS-B
Thu 10:53:18 AM 43.0420 -91.9430 42° Northeast 353 406 31,000  Level FlightAware ADS-B
Thu 10:54:06 AM 43.1000 -91.8670 44° Northeast 355 409 31,000  Level FlightAware ADS-B
Thu 10:54:36 AM 43.1390 -91.8170 43° Northeast 353 406 31,000  Level FlightAware ADS-B
Thu 10:55:19 AM 43.1830 -91.7610 43° Northeast 356 410 31,000  Level FlightAware ADS-B
Thu 10:55:46 AM 43.2170 -91.7170 43° Northeast 354 407 31,000  Level FlightAware ADS-B
Thu 10:56:36 AM 43.2800 -91.6340 44° Northeast 354 407 31,000  Level FlightAware ADS-B
Thu 10:57:03 AM 43.3070 -91.5990 43° Northeast 354 407 31,000  Level FlightAware ADS-B
Thu 10:58:17 AM 43.3830 -91.5030 43° Northeast 354 407 31,000  Level FlightAware ADS-B
Thu 10:58:51 AM 43.4170 -91.4580 44° Northeast 354 407 31,000  Level FlightAware ADS-B
Thu 10:59:29 AM 43.4560 -91.4080 43° Northeast 354 407 31,000  Level FlightAware ADS-B
Thu 11:00:41 AM 43.5290 -91.3140 43° Northeast 354 407 31,000  Level FlightAware ADS-B
Thu 11:01:18 AM 43.5670 -91.2660 42° Northeast 354 407 31,000  Level FlightAware ADS-B
Thu 11:01:51 AM 43.6714 -91.1211 42° Northeast 357 411 31,000  Level Chicago Center
Thu 11:02:32 AM 43.7156 -91.0617 44° Northeast 359 413 31,000  Level Minneapolis Center
Thu 11:03:34 AM 43.8000 -90.9486 44° Northeast 356 410 31,000  Level Minneapolis Center
Thu 11:04:36 AM 43.8728 -90.8533 43° Northeast 361 415 31,000  Level Minneapolis Center
Thu 11:05:38 AM 43.9431 -90.7575 44° Northeast 359 413 31,000  Level Minneapolis Center
Thu 11:06:40 AM 44.0144 -90.6619 44° Northeast 359 413 31,000  Level Minneapolis Center
Thu 11:07:42 AM 44.0975 -90.5517 44° Northeast 357 411 31,000  Level Minneapolis Center
Thu 11:08:44 AM 44.1667 -90.4528 46° Northeast 359 413 31,000  Level Minneapolis Center
Thu 11:09:46 AM 44.2389 -90.3581 43° Northeast 357 411 31,000  Level Minneapolis Center
Thu 11:10:47 AM 44.3100 -90.2581 45° Northeast 362 417 31,000  Level Minneapolis Center
Thu 11:11:49 AM 44.3822 -90.1594 44° Northeast 364 419 31,000  Level Minneapolis Center
Thu 11:12:51 AM 44.4544 -90.0617 44° Northeast 361 415 31,000  Level Minneapolis Center
Thu 11:13:53 AM 44.5267 -89.9633 44° Northeast 362 417 31,000  Level Minneapolis Center
Thu 11:14:55 AM 44.6125 -89.8428 45° Northeast 363 418 31,000  Level Minneapolis Center
Thu 11:15:57 AM 44.6856 -89.7411 45° Northeast 367 422 31,000 -48 Level Minneapolis Center
Thu 11:16:59 AM 44.7578 -89.6386 45° Northeast 369 425 30,900 -629 Descending Minneapolis Center
Thu 11:18:01 AM 44.8342 -89.5333 44° Northeast 380 437 29,700 -871 Descending Minneapolis Center
Thu 11:19:03 AM 44.9139 -89.4219 45° Northeast 399 459 29,100 -629 Descending Minneapolis Center
Thu 11:20:05 AM 44.9906 -89.3106 46° Northeast 397 457 28,400 -726 Descending Minneapolis Center
Thu 11:21:07 AM 45.0722 -89.1975 44° Northeast 393 452 27,600 -726 Descending Minneapolis Center
Thu 11:22:09 AM 45.1489 -89.0850 46° Northeast 396 456 26,900 -823 Descending Minneapolis Center
Thu 11:23:11 AM 45.2411 -88.9544 45° Northeast 393 452 25,900 -829 Descending Minneapolis Center
Thu 11:24:12 AM 45.3186 -88.8442 45° Northeast 396 456 25,200 -732 Descending Minneapolis Center
Thu 11:25:14 AM 45.3922 -88.7344 46° Northeast 389 448 24,400 -968 Descending Minneapolis Center
Thu 11:26:16 AM 45.4664 -88.6278 45° Northeast 382 440 23,200 -2,661 Descending Minneapolis Center
Thu 11:27:18 AM 45.5361 -88.5231 46° Northeast 371 427 18,900 -4,355 Descending Minneapolis Center
Thu 11:28:20 AM 45.6067 -88.4303 43° Northeast 352 405 14,200 -5,122 Descending Minneapolis Center
Thu 11:29:21 AM 45.6744 -88.3189 49° Northeast 317 365 8,400 -3,854 Descending Minneapolis Center
Thu 11:30:23 AM 45.7283 -88.2289 49° Northeast 305 351 6,300 -2,081 Descending Minneapolis Center
Thu 11:31:25 AM 45.7883 -88.1331 48° Northeast 300 345 4,100 -1,790 Descending Minneapolis Center
Thu 11:32:27 AM 45.8342 -88.0764 41° Northeast 218 251 2,600 -1,452 Descending Minneapolis Center

Login

Don't have an account? Register now (free) for customized features, flight alerts, and more!